Historyczne dane pomiarowe

Dodano dane terminowe – wersja testowa.

Dane z okresu 1951-2019

Wersja bazy: 1.34 [2019-03-16, lista zmian], aktualizacja planowana na 2019-04-15

Dane meteo z obszaru Polski uzyskane na podstawie danych udostępnionych przez Instytut Meteorologii i Gospodarki Wodnej – Państwowy Instytut Badawczy.

 

Wybierz Datę:    

       

TemperaturaWilgotnośćWiatrCiśnienieOpadyŚniegCzas trwania zjawisk
 Stacja t tx tn tng RH VA  wxwx mslp ppp RRR   cm mm wxwxwxwxwxwxwx
1994-08-14 12.5 17.3 9.4 7.0 85.5- 5.0 3.7---- 5.0------------
1994-08-13 15.7 18.4 13.5 13.5 92.5- 5.3 2.0---- 3.5------------
1994-08-12 17.8 21.5 15.2 15.2 93.5- 7.3 1.0---- 0.7------------
1994-08-11 21.1 27.8 15.6 12.0 74.8- 7.3 2.7---- 2.2------------
1994-08-10 21.1 29.2 10.2 7.9 66.8- 5.7 1.0---- 0.0------------
1994-08-09 20.6 28.2 14.5 12.0 64.0- 4.7 2.0---- 0.0------------
1994-08-08 20.9 27.8 15.0 14.0 67.3- 4.7 1.3---- 0.0------------
1994-08-07 21.9 27.0 14.4 10.6 69.8- 4.0 2.0---- 0.0------------
1994-08-06 23.6 30.6 14.0 12.0 71.8- 6.7 2.3---- 0.0------------
1994-08-05 23.7 33.4 11.9 10.0 59.3- 1.0 1.7---- 0.0------------
1994-08-04 20.7 30.2 10.1 6.5 65.0- 1.3 1.7---- 0.0------------
1994-08-03 23.9 29.3 17.6 15.0 69.5- 2.7 2.3---- 0.0------------
1994-08-02 25.1 31.8 16.8 14.0 74.3- 6.0 2.3---- 0.0------------
1994-08-01 29.3 36.5 16.8 15.5 53.0- 3.0 1.3---- 0.0------------
1994-07-31 28.8 37.5 16.9 12.6 55.8- 4.0 1.7---- 0.0------------
1994-07-30 27.2 37.4 16.6 12.5 56.5- 3.7 0.7---- 0.0------------
1994-07-29 26.7 36.5 14.6 12.5 55.3- 4.7 1.3---- 0.0------------
1994-07-28 26.3 35.0 17.1 14.5 60.0- 2.3 2.0---- 0.0------------
1994-07-27 26.0 34.5 19.5 17.0 60.8- 7.0 1.3---- 0.0------------
1994-07-26 25.6 35.1 13.5 11.0 47.3- 4.7 1.3---- 0.0------------
1994-07-25 24.3 33.8 11.5 9.5 61.0- 1.7 1.3---- 0.0------------
1994-07-24 24.0 32.4 12.6 10.0 59.8- 2.7 1.7---- 0.0------------
1994-07-23 22.7 31.3 10.5 8.5 59.0- 2.7 1.7---- 0.0------------
1994-07-22 22.4 30.3 10.5 7.5 49.8- 2.0 1.7---- 0.0------------
1994-07-21 21.1 30.3 8.0 6.0 58.0- 0.3 1.0---- 0.0------------
1994-07-20 19.1 26.3 7.0 4.5 59.0- 0.3 1.3---- 0.0------------
1994-07-19 18.8 24.0 12.5 9.0 64.8- 4.3 2.3---- 0.0------------
1994-07-18 19.5 25.2 12.5 12.0 63.8- 5.3 1.3---- 0.0------------
1994-07-17 20.5 26.3 12.0 10.0 74.5- 5.0 1.3---- 0.0------------
1994-07-16 22.1 26.9 18.1 16.5 70.0- 6.7 2.0---- 0.0------------
1994-07-15 23.5 32.9 15.8 10.0 71.8- 5.3 1.3---- 0.0------------
1994-07-14 23.9 32.7 11.5 9.9 61.8- 2.3 1.7---- 0.0------------
1994-07-13 24.1 31.3 12.6 11.5 59.8- 2.3 1.3---- 0.0------------
1994-07-12 22.8 30.3 13.5 11.8 60.5- 1.7 1.7---- 0.0------------
1994-07-11 21.7 29.7 11.5 9.5 60.5- 2.0 1.7---- 0.0------------
1994-07-10 20.7 27.3 13.0 10.5 73.5- 4.0 2.0---- 0.0------------
1994-07-09 18.1 23.8 13.5 11.0 72.5- 7.0 2.0---- 0.0------------
1994-07-08 15.2 20.0 13.2 13.0 93.3- 8.0 1.3---- 42.4------------
1994-07-07 18.1 26.3 8.5 6.6 68.3- 5.0 3.0---- 15.0------------
1994-07-06 20.8 24.8 15.2 13.5 62.3- 4.3 1.0---- 0.0------------
1994-07-05 19.6 26.2 12.4 9.5 60.8- 5.3 2.0---- 0.0------------
1994-07-04 21.4 28.8 10.0 8.5 56.5- 1.3 2.0---- 0.0------------
1994-07-03 20.7 27.2 7.6 6.5 58.5- 1.3 2.7---- 0.0------------
1994-07-02 17.8 25.3 6.0 5.0 58.3- 0.3 2.3---- 0.0------------
1994-07-01 17.4 23.3 8.0 6.0 64.3- 3.7 2.0---- 0.0------------
1994-06-30 18.1 27.4 16.7 16.0 71.0- 4.3 2.7---- 0.0------------
1994-06-29 25.0 34.4 15.0 11.0 71.3- 3.3 1.3---- 15.2------------
1994-06-28 23.5 30.9 12.0 8.0 55.0- 0.0 1.7---- 0.0------------
1994-06-27 23.0 29.3 14.4 14.0 71.8- 5.0 1.3---- 0.0------------
1994-06-26 20.4 33.9 8.0 6.5 60.0- 1.3 0.7---- 0.0------------
1994-06-25 16.6 25.3 2.4 0.0 56.3- 0.3 2.0---- 0.0------------
1994-06-24 14.1 19.8 7.9 6.0 64.8- 7.0 3.3---- 0.0------------
1994-06-23 15.5 22.0 11.0 8.0 57.5- 2.7 3.3---- 0.0------------
1994-06-22 20.1 24.4 15.3 13.0 71.3- 5.0 3.7---- 0.0------------
1994-06-21 15.1 23.6 4.0 1.5 75.3- 4.3 1.0---- 0.4------------
1994-06-20 15.6 18.3 12.2 11.0 67.5- 4.0 4.0---- 0.0------------
1994-06-19 15.4 21.3 10.6 10.2 81.3- 7.7 2.3---- 0.0------------
1994-06-18 11.0 17.4 2.0 -0.3 81.3- 7.3 2.0---- 8.2------------
1994-06-17 9.9 14.8 5.5 2.4 75.8- 5.0 2.3---- 0.0------------
1994-06-16 12.5 15.3 10.0 10.0 74.3- 6.3 3.7---- 4.8------------
214.8 ms

 

Źródłem pochodzenia danych jest Instytut Meteorologii i Gospodarki Wodnej – Państwowy Instytut Badawczy. Dane Instytutu Meteorologii i Gospodarki Wodnej – Państwowego Instytutu Badawczego zostały przetworzone.

Dane źródłowe można odnaleźć na stronie https://dane.imgw.pl